Time;durP1;ratioP1;P1;durP2;ratioP2;P2;SDS_P1;SDS_P2;PMS_P1;PMS_P2;Temp;Humidity;BMP_temperature;BMP_pressure;BME280_temperature;BME280_humidity;BME280_pressure;Samples;Min_cycle;Max_cycle;Signal;HPM_P1;HPM_P2
2023/10/10 00:01:06;;;;;;;17.25;5.95;;;13.70;98.30;;;;;;4888990;29;20076;-77
2023/10/10 00:03:39;;;;;;;13.05;5.60;;;13.70;98.50;;;;;;4899557;29;20107;-77
2023/10/10 00:06:08;;;;;;;14.38;6.07;;;13.70;97.30;;;;;;4908173;29;20038;-77
2023/10/10 00:08:43;;;;;;;14.95;5.63;;;13.70;98.00;;;;;;4907767;29;20218;-77
2023/10/10 00:11:10;;;;;;;17.70;5.95;;;13.70;98.10;;;;;;4906818;29;20080;-76
2023/10/10 00:13:53;;;;;;;15.35;5.72;;;13.60;98.40;;;;;;4907509;29;20204;-77
2023/10/10 00:16:26;;;;;;;16.25;5.40;;;13.60;98.20;;;;;;4907632;29;20040;-75
2023/10/10 00:18:55;;;;;;;15.07;5.75;;;13.60;98.40;;;;;;4907119;29;20232;-76
2023/10/10 00:21:28;;;;;;;14.85;5.78;;;13.60;98.40;;;;;;4907668;29;20341;-77
2023/10/10 00:23:55;;;;;;;16.67;5.80;;;13.50;98.40;;;;;;4907426;29;20052;-77
2023/10/10 00:26:21;;;;;;;18.67;5.55;;;13.50;98.30;;;;;;4907640;29;20081;-77
2023/10/10 00:28:54;;;;;;;12.70;5.73;;;13.50;99.00;;;;;;4890713;29;20032;-77
2023/10/10 05:45:08;;;;;;;16.73;6.70;;;11.10;99.90;;;;;;5154514;23;20412;-75
2023/10/10 05:47:35;;;;;;;17.70;6.32;;;11.10;99.90;;;;;;4905576;29;20035;-77
2023/10/10 05:50:01;;;;;;;15.80;7.32;;;11.10;99.90;;;;;;4907278;29;20067;-76
2023/10/10 05:52:28;;;;;;;15.73;6.45;;;11.00;99.90;;;;;;4902502;29;20046;-76
2023/10/10 05:54:53;;;;;;;20.52;7.32;;;11.00;99.90;;;;;;4929093;29;20036;-76
2023/10/10 05:57:20;;;;;;;18.88;6.57;;;11.10;99.90;;;;;;4928591;29;20091;-75
2023/10/10 05:59:45;;;;;;;18.15;7.10;;;11.10;99.90;;;;;;4928749;29;20220;-75
2023/10/10 06:02:11;;;;;;;21.85;7.78;;;11.20;99.90;;;;;;4911331;29;20044;-76
2023/10/10 06:04:37;;;;;;;18.02;6.97;;;11.20;99.90;;;;;;4928998;29;20205;-75
2023/10/10 06:07:03;;;;;;;20.48;6.95;;;11.30;99.90;;;;;;4911755;29;20205;-76
2023/10/10 06:09:33;;;;;;;17.23;6.63;;;11.40;99.90;;;;;;4928540;29;20032;-76
2023/10/10 06:12:04;;;;;;;17.48;6.47;;;11.40;99.90;;;;;;4911191;29;20046;-74
2023/10/10 06:14:31;;;;;;;19.40;5.80;;;11.50;99.90;;;;;;4911955;29;20039;-75
2023/10/10 06:16:57;;;;;;;19.95;6.80;;;11.60;99.90;;;;;;4928413;29;20055;-76
2023/10/10 06:19:23;;;;;;;19.35;6.20;;;11.60;99.90;;;;;;4928631;29;20105;-77
2023/10/10 06:21:48;;;;;;;20.67;6.85;;;11.80;99.90;;;;;;4928583;29;20080;-76
2023/10/10 06:24:14;;;;;;;27.38;8.13;;;11.80;99.90;;;;;;4927896;29;20286;-75
2023/10/10 06:26:45;;;;;;;20.08;6.65;;;11.90;99.90;;;;;;4911955;29;20020;-75
2023/10/10 06:29:12;;;;;;;16.05;6.90;;;12.00;99.90;;;;;;4927767;29;20036;-75
2023/10/10 06:31:43;;;;;;;21.17;7.03;;;12.10;99.90;;;;;;4928366;29;20044;-75
2023/10/10 06:34:22;;;;;;;20.70;7.10;;;12.30;99.90;;;;;;4911349;29;20028;-75
2023/10/10 06:36:49;;;;;;;17.65;6.25;;;12.40;99.90;;;;;;4911511;29;20059;-75
2023/10/10 06:41:42;;;;;;;26.88;7.68;;;12.60;99.90;;;;;;4927969;29;20028;-75
2023/10/10 06:44:14;;;;;;;28.85;8.88;;;12.70;99.90;;;;;;4923738;29;20066;-77
2023/10/10 06:46:46;;;;;;;27.83;8.30;;;12.80;99.90;;;;;;4873691;29;20029;-76
2023/10/10 06:49:12;;;;;;;23.50;7.80;;;12.90;99.90;;;;;;4889977;29;20064;-75
2023/10/10 06:51:41;;;;;;;25.80;8.43;;;13.00;99.90;;;;;;4878452;29;20047;-76
2023/10/10 06:54:08;;;;;;;;;;;13.00;99.90;;;;;;4892313;29;20031;-76
2023/10/10 06:56:44;;;;;;;21.98;7.18;;;13.10;99.90;;;;;;4909092;29;19932;-75
2023/10/10 06:59:16;;;;;;;23.00;6.82;;;13.20;99.90;;;;;;4891832;29;20277;-75
2023/10/10 07:01:45;;;;;;;20.77;6.28;;;13.20;99.90;;;;;;4892219;29;20041;-75
2023/10/10 07:04:13;;;;;;;20.92;7.25;;;13.40;99.90;;;;;;4891919;29;20037;-76
2023/10/10 07:06:43;;;;;;;19.50;6.80;;;13.50;99.90;;;;;;4909025;29;20291;-74
2023/10/10 07:09:27;;;;;;;23.08;6.25;;;13.60;99.90;;;;;;4891175;29;20044;-76
2023/10/10 07:11:53;;;;;;;19.15;6.18;;;13.60;99.90;;;;;;4901937;29;20044;-77
2023/10/10 07:14:19;;;;;;;18.90;6.07;;;13.70;99.90;;;;;;4891613;29;20256;-75
2023/10/10 07:16:45;;;;;;;17.95;6.50;;;13.80;99.90;;;;;;4908953;29;20044;-75
2023/10/10 07:19:30;;;;;;;17.35;5.85;;;13.90;99.90;;;;;;4907914;29;20020;-77
2023/10/10 07:22:12;;;;;;;14.73;4.80;;;14.00;99.90;;;;;;4892107;29;20263;-77
2023/10/10 07:24:46;;;;;;;14.98;5.75;;;14.20;99.90;;;;;;4892086;29;20072;-76
2023/10/10 07:27:24;;;;;;;15.95;5.70;;;14.40;99.90;;;;;;4891433;29;20313;-78
2023/10/10 07:32:42;;;;;;;20.83;6.30;;;14.70;99.90;;;;;;4908186;29;20044;-79
2023/10/10 07:35:15;;;;;;;18.35;5.25;;;14.80;99.90;;;;;;4907733;29;20039;-77
2023/10/10 07:38:09;;;;;;;;;;;14.90;99.90;;;;;;4895512;29;20023;-79
2023/10/10 07:41:04;;;;;;;15.25;5.28;;;14.90;99.90;;;;;;4920143;29;20096;-78
2023/10/10 07:43:52;;;;;;;14.27;5.32;;;15.00;99.90;;;;;;4890126;29;20322;-76
2023/10/10 07:46:22;;;;;;;26.65;6.00;;;15.20;99.90;;;;;;4891006;29;20093;-78
2023/10/10 07:49:08;;;;;;;14.88;5.60;;;15.30;99.90;;;;;;4908062;29;20021;-77
2023/10/10 07:51:34;;;;;;;19.90;5.85;;;15.40;99.90;;;;;;4890884;29;20028;-77
2023/10/10 07:54:31;;;;;;;20.00;5.75;;;15.50;99.90;;;;;;4907877;29;20334;-78
2023/10/10 07:58:01;;;;;;;15.43;4.80;;;15.60;99.90;;;;;;4894191;29;20063;-78
2023/10/10 08:00:36;;;;;;;19.52;5.03;;;15.70;99.90;;;;;;4875650;29;20309;-78
2023/10/10 08:03:06;;;;;;;17.30;5.25;;;15.80;99.90;;;;;;4907808;29;20060;-76
2023/10/10 08:09:23;;;;;;;21.13;6.00;;;15.90;99.90;;;;;;4849777;29;20048;-76
2023/10/10 08:11:55;;;;;;;17.27;5.10;;;15.90;99.90;;;;;;4849958;29;20061;-76
2023/10/10 08:14:46;;;;;;;14.60;5.47;;;15.90;99.90;;;;;;4838124;29;20207;-77
2023/10/10 08:17:25;;;;;;;19.35;5.13;;;16.00;99.90;;;;;;4834642;29;20054;-78
2023/10/10 08:20:31;;;;;;;17.75;5.70;;;16.10;99.90;;;;;;4834560;29;20041;-77
2023/10/10 08:22:45;;;;;;;15.93;5.43;;;16.20;99.90;;;;;;4834194;29;20042;-79
2023/10/10 08:25:19;;;;;;;16.85;5.40;;;16.30;99.90;;;;;;4849138;29;20235;-76
2023/10/10 08:28:13;;;;;;;16.42;5.45;;;16.50;99.90;;;;;;4850291;29;20069;-80
2023/10/10 08:30:39;;;;;;;15.98;5.82;;;16.50;99.90;;;;;;4850007;29;20060;-78
2023/10/10 08:33:07;;;;;;;15.98;4.90;;;16.60;99.90;;;;;;4849441;29;20045;-77
2023/10/10 08:35:38;;;;;;;14.93;5.35;;;16.70;99.80;;;;;;4834472;29;20037;-76
2023/10/10 08:38:13;;;;;;;19.65;6.55;;;16.70;99.40;;;;;;4850262;29;20045;-76
2023/10/10 08:40:43;;;;;;;25.25;7.22;;;16.70;98.90;;;;;;4850711;29;20053;-77
2023/10/10 08:43:09;;;;;;;;;;;16.80;98.90;;;;;;4834714;29;20346;-78
2023/10/10 08:46:21;;;;;;;21.23;6.00;;;16.90;98.30;;;;;;4847723;29;20186;-77
2023/10/10 08:48:54;;;;;;;18.90;6.18;;;17.10;98.10;;;;;;4875973;29;20041;-78
2023/10/10 08:51:20;;;;;;;17.38;6.10;;;17.10;97.60;;;;;;4873743;29;20282;-78
2023/10/10 08:54:12;;;;;;;21.25;5.93;;;17.20;97.30;;;;;;4907068;29;20053;-76
2023/10/10 08:57:56;;;;;;;19.55;5.38;;;17.30;97.10;;;;;;4890830;29;20422;-79
2023/10/10 08:59:52;;;;;;;15.98;4.97;;;17.40;97.00;;;;;;4875273;29;20071;-77
2023/10/10 09:14:09;;;;;;;18.42;4.93;;;18.20;95.00;;;;;;4906699;29;20051;-79
2023/10/10 09:20:29;;;;;;;17.20;5.47;;;18.60;94.10;;;;;;4794944;30;20072;-77
2023/10/10 09:30:33;;;;;;;14.52;5.15;;;19.30;92.80;;;;;;4906810;29;20159;-76
2023/10/10 09:33:22;;;;;;;13.55;5.18;;;19.50;92.50;;;;;;4878413;29;20064;-77
2023/10/10 09:36:19;;;;;;;12.63;4.95;;;19.60;92.30;;;;;;4896877;29;20027;-77
2023/10/10 09:38:53;;;;;;;15.52;5.15;;;19.90;92.20;;;;;;4908104;29;20084;-77
2023/10/10 09:44:49;;;;;;;18.45;5.60;;;20.30;91.80;;;;;;4890054;29;20172;-78
2023/10/10 09:47:13;;;;;;;19.40;5.90;;;20.50;91.00;;;;;;4873473;29;20037;-77
2023/10/10 09:49:46;;;;;;;15.75;5.97;;;20.50;90.90;;;;;;4891241;29;20100;-78
2023/10/10 09:57:44;;;;;;;16.02;5.28;;;20.80;90.30;;;;;;4909926;29;20040;-79
2023/10/10 10:00:14;;;;;;;15.57;5.47;;;20.90;89.70;;;;;;4909195;29;20028;-76
2023/10/10 10:02:49;;;;;;;22.25;6.78;;;21.10;89.10;;;;;;4893074;29;20044;-77
2023/10/10 10:05:19;;;;;;;19.10;6.30;;;21.30;89.10;;;;;;4909205;29;20041;-78
2023/10/10 10:08:07;;;;;;;21.58;5.95;;;21.50;88.30;;;;;;4909986;29;20044;-77
2023/10/10 10:11:33;;;;;;;20.92;6.18;;;21.70;87.60;;;;;;4892491;29;20039;-77
2023/10/10 10:14:21;;;;;;;19.65;5.80;;;21.90;87.00;;;;;;4815228;29;20130;-78
2023/10/10 10:16:51;;;;;;;17.67;5.47;;;22.10;86.00;;;;;;4800696;29;20058;-78
2023/10/10 10:19:22;;;;;;;18.73;6.00;;;22.20;84.50;;;;;;4814978;29;20035;-77
2023/10/10 10:21:53;;;;;;;16.73;5.38;;;22.40;84.40;;;;;;4800251;29;20059;-79
2023/10/10 10:24:33;;;;;;;18.92;5.22;;;22.60;83.60;;;;;;4815147;29;20051;-78
2023/10/10 10:32:48;;;;;;;18.45;5.75;;;23.00;83.00;;;;;;4815388;29;20046;-77
2023/10/10 10:35:25;;;;;;;15.23;6.18;;;23.20;81.80;;;;;;4784872;29;20041;-76
2023/10/10 10:38:00;;;;;;;15.93;5.05;;;23.30;81.00;;;;;;4800264;29;20047;-78
2023/10/10 10:43:20;;;;;;;25.98;5.93;;;23.70;80.30;;;;;;4814628;29;20284;-77
2023/10/10 10:46:11;;;;;;;16.25;6.35;;;24.00;79.00;;;;;;4800308;29;20055;-77
2023/10/10 10:48:41;;;;;;;17.83;5.65;;;24.30;78.60;;;;;;4800133;29;20047;-77
2023/10/10 10:53:58;;;;;;;15.85;5.43;;;24.50;77.10;;;;;;4890290;29;20032;-78
2023/10/10 10:59:15;;;;;;;20.35;5.75;;;25.30;74.30;;;;;;4890368;29;20081;-76
2023/10/10 11:01:45;;;;;;;13.38;4.68;;;25.70;72.80;;;;;;4890126;29;20073;-77
2023/10/10 11:07:16;;;;;;;21.48;5.38;;;26.90;69.70;;;;;;4889702;29;20100;-78
2023/10/10 11:09:52;;;;;;;16.55;5.88;;;27.10;69.10;;;;;;4873002;29;20239;-78
2023/10/10 11:12:22;;;;;;;15.38;5.65;;;27.40;65.20;;;;;;4889642;29;20278;-79
2023/10/10 11:14:49;;;;;;;25.40;6.55;;;27.20;66.10;;;;;;4889881;29;20303;-77
2023/10/10 11:17:18;;;;;;;20.37;5.63;;;27.60;64.70;;;;;;4873178;29;20172;-75
2023/10/10 11:19:53;;;;;;;20.95;6.07;;;28.10;63.20;;;;;;4889711;29;20081;-74
2023/10/10 11:25:41;;;;;;;70.43;11.80;;;29.10;60.70;;;;;;4904764;29;20047;-78
2023/10/10 11:28:23;;;;;;;16.60;5.75;;;29.70;60.80;;;;;;4892159;29;20028;-79
2023/10/10 11:30:50;;;;;;;16.73;6.00;;;29.60;60.10;;;;;;4876681;29;20322;-76
2023/10/10 11:33:49;;;;;;;15.85;6.03;;;29.70;60.00;;;;;;4872724;29;20112;-79
2023/10/10 11:37:05;;;;;;;23.58;6.57;;;30.00;60.40;;;;;;4857490;29;20051;-79
2023/10/10 11:40:36;;;;;;;20.67;6.32;;;30.10;58.90;;;;;;4844923;29;20359;-78
2023/10/10 11:43:17;;;;;;;28.02;6.40;;;30.20;59.30;;;;;;4871896;29;20044;-79
2023/10/10 11:45:51;;;;;;;24.05;6.60;;;30.30;57.80;;;;;;4872586;29;20061;-78
2023/10/10 11:48:21;;;;;;;21.27;6.40;;;30.60;58.20;;;;;;4872118;29;20081;-76
2023/10/10 11:50:51;;;;;;;17.58;5.40;;;30.80;57.30;;;;;;4897558;29;20263;-80
2023/10/10 11:53:24;;;;;;;18.58;5.30;;;30.90;56.80;;;;;;4887677;29;20266;-81
2023/10/10 11:55:52;;;;;;;19.88;6.10;;;31.20;55.80;;;;;;4882229;29;20043;-79
2023/10/10 11:58:23;;;;;;;18.38;6.07;;;31.30;55.40;;;;;;4891011;29;20385;-77
2023/10/10 12:01:05;;;;;;;21.95;6.07;;;31.60;55.30;;;;;;4908235;29;20052;-81
2023/10/10 12:06:14;;;;;;;13.88;5.15;;;32.20;53.40;;;;;;4891226;29;20032;-78
2023/10/10 12:08:45;;;;;;;16.30;5.03;;;32.10;52.60;;;;;;4907243;29;20103;-80
2023/10/10 12:11:33;;;;;;;12.60;5.55;;;32.10;52.60;;;;;;4906531;29;20060;-77
2023/10/10 12:13:57;;;;;;;16.15;5.30;;;32.00;50.80;;;;;;4906566;29;20053;-79
2023/10/10 12:16:27;;;;;;;17.92;5.35;;;32.10;50.50;;;;;;4875271;29;20319;-81
2023/10/10 12:18:53;;;;;;;16.17;5.70;;;32.00;50.80;;;;;;4907842;29;20147;-77
2023/10/10 12:21:22;;;;;;;16.45;6.22;;;31.80;51.10;;;;;;4888552;29;20033;-79
2023/10/10 12:23:55;;;;;;;12.23;5.20;;;32.10;50.60;;;;;;4873373;29;20064;-79
2023/10/10 12:26:22;;;;;;;14.52;5.18;;;32.00;50.30;;;;;;4875034;29;20040;-77
2023/10/10 12:28:50;;;;;;;17.73;5.20;;;31.90;51.70;;;;;;4907562;29;20040;-77
2023/10/10 12:31:16;;;;;;;13.50;5.22;;;31.80;48.40;;;;;;4906463;29;20298;-78
2023/10/10 12:33:47;;;;;;;15.45;5.25;;;31.90;47.90;;;;;;4890295;29;20222;-78
2023/10/10 12:36:14;;;;;;;15.02;5.70;;;31.80;48.10;;;;;;4907135;29;20037;-78
2023/10/10 12:38:40;;;;;;;14.75;5.63;;;31.80;48.80;;;;;;4890352;29;20025;-79
2023/10/10 12:41:06;;;;;;;14.82;5.50;;;31.70;49.30;;;;;;4890826;29;20043;-77
2023/10/10 12:43:33;;;;;;;13.95;6.15;;;31.70;50.90;;;;;;4906211;29;20036;-79
2023/10/10 12:46:01;;;;;;;13.63;5.60;;;31.40;50.50;;;;;;4890826;29;20315;-79
2023/10/10 12:48:28;;;;;;;14.98;5.22;;;31.50;51.30;;;;;;4905721;29;20104;-79
2023/10/10 12:50:54;;;;;;;13.73;5.50;;;31.50;51.10;;;;;;4872153;29;20045;-81
2023/10/10 12:53:22;;;;;;;15.68;5.30;;;31.80;51.70;;;;;;4889534;29;20028;-80
2023/10/10 12:56:11;;;;;;;17.73;5.63;;;32.10;50.50;;;;;;4875225;29;20044;-79
2023/10/10 12:59:03;;;;;;;17.10;5.93;;;32.10;50.20;;;;;;4907272;29;20040;-82
2023/10/10 13:01:32;;;;;;;16.10;5.65;;;32.00;49.80;;;;;;4874718;29;20214;-80
2023/10/10 13:04:17;;;;;;;18.42;5.38;;;31.70;51.20;;;;;;4890977;29;20349;-79
2023/10/10 13:06:43;;;;;;;12.48;5.15;;;31.70;51.70;;;;;;4906820;29;20020;-80
2023/10/10 13:09:14;;;;;;;18.02;5.47;;;32.10;50.80;;;;;;4878744;29;20028;-78
2023/10/10 13:11:49;;;;;;;15.80;5.70;;;32.50;50.80;;;;;;4910220;29;20119;-82
2023/10/10 13:14:17;;;;;;;13.13;5.38;;;32.70;50.40;;;;;;4878848;29;20039;-81
2023/10/10 13:22:20;;;;;;;16.02;5.85;;;33.80;48.40;;;;;;4871868;29;20319;-80
2023/10/10 13:24:48;;;;;;;13.27;5.75;;;34.10;49.00;;;;;;4855876;29;20033;-80
2023/10/10 13:27:15;;;;;;;;;;;34.40;48.20;;;;;;4853829;29;20137;-80
2023/10/10 13:29:44;;;;;;;14.98;5.80;;;34.40;48.20;;;;;;4822662;29;19922;-79
2023/10/10 13:32:10;;;;;;;14.43;5.00;;;34.50;48.80;;;;;;4852920;29;20050;-79
2023/10/10 13:34:54;;;;;;;15.55;5.55;;;34.30;48.50;;;;;;4822125;29;20030;-81
2023/10/10 13:37:33;;;;;;;12.93;5.45;;;34.40;48.90;;;;;;4839284;29;20038;-81
2023/10/10 13:39:59;;;;;;;13.18;5.72;;;34.10;48.70;;;;;;4851615;29;20030;-79
2023/10/10 13:42:31;;;;;;;19.42;5.68;;;33.90;48.40;;;;;;4840036;29;20046;-78
2023/10/10 13:45:11;;;;;;;23.15;5.72;;;33.50;48.40;;;;;;4853069;29;20058;-78
2023/10/10 13:47:41;;;;;;;27.83;5.90;;;33.00;49.30;;;;;;4852335;29;20057;-80
2023/10/10 13:53:01;;;;;;;;;;;;;;;;;;;;;
2023/10/10 13:55:52;;;;;;;14.70;5.43;;;31.90;49.70;;;;;;4853860;29;20086;-80
2023/10/10 13:58:21;;;;;;;13.82;5.32;;;31.80;50.20;;;;;;4835791;29;20263;-79
2023/10/10 14:00:55;;;;;;;17.30;5.32;;;31.70;50.50;;;;;;4878365;29;20028;-79
2023/10/10 14:03:35;;;;;;;15.05;5.57;;;31.50;51.10;;;;;;4893459;29;20044;-77
2023/10/10 14:06:12;;;;;;;14.05;6.00;;;31.50;50.70;;;;;;4877867;29;20028;-78
2023/10/10 14:08:43;;;;;;;11.88;4.65;;;31.20;51.00;;;;;;4877429;29;20032;-78
2023/10/10 14:11:12;;;;;;;15.50;5.55;;;31.20;52.40;;;;;;4893067;29;20064;-79
2023/10/10 14:13:39;;;;;;;15.65;5.85;;;31.00;51.80;;;;;;4876954;29;20043;-78
2023/10/10 14:16:05;;;;;;;12.60;5.20;;;31.10;51.70;;;;;;4877659;29;20052;-78
2023/10/10 14:18:51;;;;;;;14.48;5.30;;;30.80;51.70;;;;;;4891124;29;20081;-78
2023/10/10 14:21:28;;;;;;;11.98;4.97;;;30.50;52.10;;;;;;4877328;29;20032;-79
2023/10/10 14:24:06;;;;;;;10.25;4.50;;;30.20;52.90;;;;;;4877678;29;20029;-78
2023/10/10 14:26:36;;;;;;;16.08;5.38;;;30.10;53.00;;;;;;4876822;29;20219;-79
2023/10/10 14:29:06;;;;;;;12.32;5.40;;;30.00;53.40;;;;;;4876974;29;20334;-78
2023/10/10 14:31:34;;;;;;;12.00;5.35;;;30.00;53.30;;;;;;4892062;29;20036;-79
2023/10/10 14:34:04;;;;;;;14.63;5.82;;;30.10;52.90;;;;;;4877001;29;20040;-77
2023/10/10 14:36:31;;;;;;;15.32;5.72;;;30.40;53.00;;;;;;4892028;29;20318;-77
2023/10/10 14:38:57;;;;;;;15.75;5.53;;;30.90;52.70;;;;;;4877302;29;20024;-79
2023/10/10 14:41:30;;;;;;;13.25;5.70;;;31.30;52.40;;;;;;4876910;29;20029;-77
2023/10/10 14:44:03;;;;;;;12.77;5.32;;;31.90;51.50;;;;;;4876968;29;20048;-76
2023/10/10 14:46:31;;;;;;;17.10;5.68;;;32.40;50.70;;;;;;4876716;29;20044;-79
2023/10/10 14:49:01;;;;;;;;;;;32.60;50.50;;;;;;4877440;29;20036;-76
2023/10/10 14:51:33;;;;;;;11.25;5.25;;;32.80;50.30;;;;;;4876318;29;19915;-77
2023/10/10 14:54:19;;;;;;;14.23;5.30;;;32.90;50.30;;;;;;4892769;29;20088;-78
2023/10/10 14:56:46;;;;;;;16.83;5.55;;;33.30;49.90;;;;;;4908465;29;20307;-78
2023/10/10 14:59:20;;;;;;;11.50;4.68;;;33.20;49.30;;;;;;4892325;29;20103;-80
2023/10/10 15:01:51;;;;;;;14.85;5.68;;;32.80;50.20;;;;;;4891864;29;20047;-79
2023/10/10 15:04:22;;;;;;;13.30;5.25;;;32.30;50.80;;;;;;4892191;29;20028;-79
2023/10/10 15:06:55;;;;;;;13.70;5.53;;;31.90;51.00;;;;;;4907337;29;20072;-76
2023/10/10 15:09:25;;;;;;;14.43;5.22;;;31.70;51.30;;;;;;4908705;29;20330;-80
2023/10/10 15:11:59;;;;;;;13.88;5.30;;;31.60;51.80;;;;;;4891868;29;20116;-78
2023/10/10 15:14:25;;;;;;;11.95;5.10;;;31.30;51.80;;;;;;4892415;29;20077;-78
2023/10/10 15:17:43;;;;;;;12.63;5.47;;;31.20;52.50;;;;;;4891640;29;20048;-79
2023/10/10 15:20:13;;;;;;;12.38;5.32;;;31.00;52.40;;;;;;4876384;29;20032;-77
2023/10/10 15:22:41;;;;;;;12.93;5.80;;;30.90;52.40;;;;;;4891199;29;20345;-76
2023/10/10 15:25:10;;;;;;;12.57;5.60;;;30.90;53.20;;;;;;4908473;29;20320;-79
2023/10/10 15:27:41;;;;;;;16.33;6.50;;;31.10;52.30;;;;;;4891430;29;20035;-78
2023/10/10 15:30:08;;;;;;;16.35;6.15;;;31.10;52.20;;;;;;4891684;29;20032;-80
2023/10/10 15:32:44;;;;;;;13.68;5.70;;;31.30;52.10;;;;;;4891297;29;20033;-82
2023/10/10 15:35:11;;;;;;;12.20;6.05;;;31.40;52.10;;;;;;4907163;29;20033;-79
2023/10/10 15:37:47;;;;;;;12.70;5.15;;;32.00;51.90;;;;;;4907741;29;20033;-79
2023/10/10 15:40:20;;;;;;;13.90;5.47;;;32.60;51.40;;;;;;4876217;29;20029;-78
2023/10/10 15:42:51;;;;;;;17.30;6.60;;;33.10;50.80;;;;;;4891328;29;20064;-79
2023/10/10 15:45:22;;;;;;;13.43;6.13;;;33.30;50.20;;;;;;4875758;29;20051;-78
2023/10/10 15:47:52;;;;;;;13.05;6.60;;;33.40;50.10;;;;;;4905769;29;20068;-79
2023/10/10 15:50:21;;;;;;;14.25;6.60;;;33.30;49.80;;;;;;4891346;29;20041;-79
2023/10/10 15:52:50;;;;;;;15.75;6.93;;;33.20;50.00;;;;;;4890888;29;20063;-78
2023/10/10 15:55:23;;;;;;;18.63;7.25;;;32.90;50.80;;;;;;4907962;29;20013;-79
2023/10/10 15:57:53;;;;;;;15.23;7.03;;;32.60;51.00;;;;;;4907340;29;20035;-81
2023/10/10 16:00:32;;;;;;;15.23;7.18;;;32.20;51.60;;;;;;4906755;29;20032;-79
2023/10/10 16:02:59;;;;;;;14.82;6.00;;;32.00;51.70;;;;;;4906926;29;20039;-79
2023/10/10 16:05:25;;;;;;;;;;;31.80;52.20;;;;;;4891897;29;20035;-77
2023/10/10 16:07:51;;;;;;;13.02;5.45;;;31.40;52.20;;;;;;4907320;29;19958;-78
2023/10/10 16:10:17;;;;;;;11.02;5.82;;;31.20;52.70;;;;;;4890937;29;20099;-77
2023/10/10 16:12:46;;;;;;;16.75;6.50;;;30.60;53.50;;;;;;4875077;29;20039;-78
2023/10/10 16:15:18;;;;;;;13.98;6.47;;;29.70;55.10;;;;;;4907980;29;20028;-77
2023/10/10 16:17:45;;;;;;;12.35;5.97;;;28.90;55.90;;;;;;4907284;29;20028;-77
2023/10/10 16:20:12;;;;;;;12.43;6.18;;;28.10;57.00;;;;;;4906678;29;20144;-78
2023/10/10 16:22:40;;;;;;;21.30;6.18;;;27.30;58.20;;;;;;4907331;29;20048;-77
2023/10/10 16:25:13;;;;;;;19.75;6.88;;;26.70;58.70;;;;;;4907691;29;20095;-77
2023/10/10 16:27:40;;;;;;;14.43;7.07;;;26.00;60.30;;;;;;4907090;29;20040;-76
2023/10/10 16:30:07;;;;;;;15.75;7.43;;;25.40;62.20;;;;;;4907656;29;20039;-76
2023/10/10 16:32:39;;;;;;;18.47;6.50;;;24.70;64.10;;;;;;4905740;29;20060;-76
2023/10/10 16:35:06;;;;;;;17.25;6.47;;;24.20;66.30;;;;;;4890865;29;20314;-80
2023/10/10 16:37:36;;;;;;;15.02;6.70;;;23.90;67.00;;;;;;4907317;29;20055;-77
2023/10/10 16:40:06;;;;;;;16.33;5.80;;;23.60;68.10;;;;;;4908196;29;20052;-76
2023/10/10 16:42:33;;;;;;;14.13;6.47;;;23.30;69.20;;;;;;4905444;29;20032;-78
2023/10/10 16:44:58;;;;;;;16.90;5.65;;;23.10;69.90;;;;;;4907510;29;20311;-76
2023/10/10 16:47:24;;;;;;;18.60;6.93;;;22.80;70.50;;;;;;4906357;29;20028;-78
2023/10/10 16:49:50;;;;;;;18.08;6.53;;;22.60;70.90;;;;;;4890273;29;20040;-79
2023/10/10 16:52:17;;;;;;;17.08;6.25;;;22.40;71.20;;;;;;4904689;29;20309;-77
2023/10/10 16:54:50;;;;;;;17.20;6.07;;;22.30;71.80;;;;;;4900567;29;20325;-77
2023/10/10 16:57:17;;;;;;;13.88;6.45;;;22.10;72.00;;;;;;4894515;29;20095;-76
2023/10/10 16:59:46;;;;;;;16.67;6.40;;;21.90;72.60;;;;;;4874494;29;20028;-75
2023/10/10 17:02:12;;;;;;;18.60;6.43;;;21.70;73.00;;;;;;4907103;29;20039;-77
2023/10/10 17:04:37;;;;;;;17.23;6.20;;;21.50;73.50;;;;;;4906936;29;20017;-75
2023/10/10 17:07:04;;;;;;;17.42;6.25;;;21.30;74.10;;;;;;4907494;29;20043;-76
2023/10/10 17:09:35;;;;;;;15.35;6.18;;;21.00;74.40;;;;;;4908277;29;20024;-76
2023/10/10 17:12:05;;;;;;;15.90;6.68;;;20.90;75.00;;;;;;4907693;29;20024;-76
2023/10/10 17:14:31;;;;;;;17.13;7.45;;;20.70;75.30;;;;;;4890685;29;20056;-76
2023/10/10 17:16:57;;;;;;;17.08;6.68;;;20.60;75.90;;;;;;4906757;29;20040;-75
2023/10/10 17:19:23;;;;;;;16.60;6.90;;;20.40;75.90;;;;;;4906985;29;20064;-76
2023/10/10 17:21:49;;;;;;;17.85;7.60;;;20.30;76.40;;;;;;4890302;29;20306;-76
2023/10/10 17:24:18;;;;;;;19.02;7.05;;;20.10;77.10;;;;;;4875190;29;20072;-77
2023/10/10 17:26:44;;;;;;;18.60;7.28;;;20.00;77.80;;;;;;4871702;29;20056;-76
2023/10/10 17:29:12;;;;;;;15.50;7.15;;;19.90;78.10;;;;;;4860343;29;20028;-76
2023/10/10 17:31:39;;;;;;;;;;;19.80;78.60;;;;;;4890501;29;20033;-76
2023/10/10 17:34:06;;;;;;;17.88;7.82;;;19.70;78.70;;;;;;4889858;29;19904;-77
2023/10/10 17:36:32;;;;;;;18.58;7.53;;;19.60;79.50;;;;;;4874673;29;20024;-76
2023/10/10 17:39:00;;;;;;;16.35;6.43;;;19.50;79.30;;;;;;4889706;29;20076;-76
2023/10/10 17:41:42;;;;;;;17.63;6.57;;;19.40;78.40;;;;;;4890684;29;20055;-76
2023/10/10 17:44:26;;;;;;;14.40;6.30;;;19.30;78.70;;;;;;4890231;29;20140;-76
2023/10/10 17:47:50;;;;;;;17.38;6.38;;;19.20;79.40;;;;;;4907244;29;20341;-79
2023/10/10 17:50:16;;;;;;;18.05;7.72;;;19.10;79.90;;;;;;4834001;29;20231;-78
2023/10/10 17:52:43;;;;;;;17.58;7.32;;;19.00;79.90;;;;;;4849188;29;20054;-76
2023/10/10 17:55:09;;;;;;;12.32;6.53;;;18.90;80.10;;;;;;4901276;29;20041;-76
2023/10/10 17:57:35;;;;;;;19.77;7.63;;;18.90;80.60;;;;;;4893838;29;20341;-77
2023/10/10 18:00:13;;;;;;;15.65;7.30;;;18.90;81.00;;;;;;4893258;29;20024;-78
2023/10/10 18:02:39;;;;;;;12.67;6.60;;;18.80;81.20;;;;;;4891305;29;20048;-78
2023/10/10 18:05:05;;;;;;;17.15;7.15;;;18.80;80.90;;;;;;4908640;29;20196;-76
2023/10/10 18:07:31;;;;;;;16.88;6.90;;;18.80;81.10;;;;;;4910495;29;20031;-78
2023/10/10 18:09:57;;;;;;;16.17;8.05;;;18.80;81.70;;;;;;4877550;29;20024;-76
2023/10/10 18:12:23;;;;;;;18.25;7.97;;;18.70;81.50;;;;;;4878038;29;20334;-74
2023/10/10 18:14:55;;;;;;;20.27;8.25;;;18.60;81.60;;;;;;4909653;29;20036;-78
2023/10/10 18:17:21;;;;;;;16.55;7.80;;;18.60;81.70;;;;;;4909991;29;20028;-78
2023/10/10 18:19:49;;;;;;;16.05;7.72;;;18.60;82.00;;;;;;4909429;29;20048;-77
2023/10/10 18:22:15;;;;;;;16.73;8.48;;;18.60;82.00;;;;;;4910176;29;20020;-76
2023/10/10 18:24:40;;;;;;;15.93;7.43;;;18.50;82.90;;;;;;4909724;29;20048;-79
2023/10/10 18:27:06;;;;;;;19.20;8.90;;;18.40;82.70;;;;;;4891637;29;20033;-77
2023/10/10 18:29:33;;;;;;;17.83;8.27;;;18.30;83.30;;;;;;4906962;29;20248;-77
2023/10/10 18:31:59;;;;;;;21.13;9.50;;;18.20;84.00;;;;;;4909176;29;20209;-76
2023/10/10 18:34:27;;;;;;;17.05;7.90;;;18.00;85.80;;;;;;4909665;29;20040;-78
2023/10/10 18:36:53;;;;;;;;;;;17.90;85.30;;;;;;4892421;29;20021;-79
2023/10/10 18:39:18;;;;;;;17.58;8.35;;;17.80;85.40;;;;;;4908228;29;19908;-76
2023/10/10 18:41:45;;;;;;;19.50;8.07;;;17.70;86.00;;;;;;4909452;29;20044;-77
2023/10/10 18:44:15;;;;;;;19.00;8.10;;;17.60;85.50;;;;;;4909747;29;20052;-75
2023/10/10 18:46:43;;;;;;;21.10;9.18;;;17.60;85.70;;;;;;4908956;29;20032;-76
2023/10/10 18:49:09;;;;;;;21.40;8.98;;;17.50;87.10;;;;;;4909039;29;20040;-76
2023/10/10 18:51:38;;;;;;;21.67;8.88;;;17.40;87.00;;;;;;4881785;29;20059;-77
2023/10/10 18:54:08;;;;;;;20.95;9.50;;;17.40;86.70;;;;;;4928305;29;20095;-77
2023/10/10 18:56:33;;;;;;;19.90;8.98;;;17.40;87.90;;;;;;4911380;29;20340;-77
2023/10/10 18:59:00;;;;;;;20.63;9.10;;;17.30;88.70;;;;;;4927891;29;20023;-76
2023/10/10 19:01:26;;;;;;;17.85;8.93;;;17.10;89.20;;;;;;4916783;29;20322;-77
2023/10/10 19:03:52;;;;;;;17.90;9.00;;;16.90;89.70;;;;;;4916750;29;20107;-77
2023/10/10 19:06:18;;;;;;;19.30;9.43;;;16.90;90.10;;;;;;4910784;29;20024;-76
2023/10/10 19:08:45;;;;;;;22.33;8.50;;;16.80;90.30;;;;;;4927579;29;20060;-77
2023/10/10 19:11:13;;;;;;;23.55;9.00;;;16.70;90.40;;;;;;4927968;29;20032;-77
2023/10/10 19:13:39;;;;;;;23.92;9.93;;;16.60;90.60;;;;;;4928361;29;20051;-76
2023/10/10 19:16:05;;;;;;;17.60;9.02;;;16.50;90.60;;;;;;4927740;29;20036;-76
2023/10/10 19:18:34;;;;;;;19.98;9.73;;;16.50;91.00;;;;;;4911117;29;20040;-76
2023/10/10 19:21:15;;;;;;;23.77;9.48;;;16.50;91.00;;;;;;4927700;29;20044;-79
2023/10/10 19:23:42;;;;;;;16.75;8.38;;;16.40;90.90;;;;;;4927900;29;20036;-76
2023/10/10 19:26:12;;;;;;;23.88;9.55;;;16.40;90.90;;;;;;4910781;29;20309;-77
2023/10/10 19:28:38;;;;;;;24.17;10.15;;;16.30;90.80;;;;;;4927667;29;20087;-78
2023/10/10 19:31:04;;;;;;;21.13;9.73;;;16.30;91.10;;;;;;4910411;29;20080;-77
2023/10/10 19:33:31;;;;;;;21.50;10.45;;;16.30;91.30;;;;;;4927417;29;20056;-77